Time;durP1;ratioP1;P1;durP2;ratioP2;P2;SDS_P1;SDS_P2;PMS_P1;PMS_P2;Temp;Humidity;BMP_temperature;BMP_pressure;BME280_temperature;BME280_humidity;BME280_pressure;Samples;Min_cycle;Max_cycle;Signal;HPM_P1;HPM_P2
2022/06/08 00:01:59;;;;;;;1.80;1.70;;;17.70;99.90;;;18.07;nan;100280.47;4943652;29;20619;-66
2022/06/08 00:04:27;;;;;;;2.13;2.00;;;17.50;99.90;;;17.95;nan;100279.19;4951954;29;20671;-66
2022/06/08 00:06:54;;;;;;;1.90;1.80;;;17.30;99.90;;;17.85;nan;100276.69;4962712;28;20662;-67
2022/06/08 00:09:21;;;;;;;2.40;2.10;;;17.20;99.90;;;17.81;nan;100270.94;4956003;28;20632;-67
2022/06/08 00:11:48;;;;;;;1.90;1.80;;;17.20;99.90;;;17.79;nan;100264.16;4953455;28;21198;-66
2022/06/08 00:14:16;;;;;;;2.07;1.97;;;17.20;99.90;;;17.71;nan;100272.09;4952105;29;20620;-66
2022/06/08 00:16:43;;;;;;;1.97;1.80;;;17.10;99.90;;;17.61;nan;100263.50;4953769;29;20627;-66
2022/06/08 00:19:10;;;;;;;2.23;1.87;;;17.00;99.90;;;17.49;nan;100260.31;4951877;29;20648;-67
2022/06/08 00:21:37;;;;;;;2.57;1.73;;;17.00;99.90;;;17.42;nan;100259.31;4963590;28;20640;-66
2022/06/08 00:24:05;;;;;;;2.67;2.47;;;16.80;99.90;;;17.39;nan;100254.38;4958852;28;20636;-65
2022/06/08 00:26:32;;;;;;;2.30;2.20;;;16.80;99.90;;;17.39;nan;100258.81;4951055;28;20644;-66
2022/06/08 00:28:59;;;;;;;2.00;1.87;;;16.80;99.90;;;17.42;nan;100255.88;4952134;28;21237;-65
2022/06/08 00:31:26;;;;;;;2.30;2.20;;;16.80;99.90;;;17.41;nan;100248.94;4952345;28;20647;-66
2022/06/08 00:33:53;;;;;;;2.00;1.90;;;16.80;99.90;;;17.36;nan;100251.22;4953699;29;20622;-65
2022/06/08 00:36:20;;;;;;;2.40;2.20;;;16.80;99.90;;;17.34;nan;100248.75;4952060;29;20628;-66
2022/06/08 00:38:47;;;;;;;3.67;2.10;;;16.80;99.90;;;17.31;nan;100243.00;4954397;28;20652;-65
2022/06/08 00:41:40;;;;;;;2.10;1.97;;;16.70;99.90;;;17.22;nan;100238.69;4952338;28;20647;-66
2022/06/08 00:44:30;;;;;;;2.33;2.23;;;16.60;99.90;;;17.19;nan;100242.47;4951734;29;20632;-66
2022/06/08 00:46:59;;;;;;;2.10;2.00;;;16.60;99.90;;;17.16;nan;100241.97;4946637;28;20674;-66
2022/06/08 00:49:43;;;;;;;2.97;2.00;;;16.50;99.90;;;17.17;nan;100240.97;4951830;28;20624;-66
2022/06/08 00:52:13;;;;;;;3.20;2.37;;;16.60;99.90;;;17.20;nan;100232.75;4932413;29;20633;-67
2022/06/08 00:54:47;;;;;;;3.57;2.30;;;16.60;99.90;;;17.23;nan;100241.16;4941215;28;21205;-66
2022/06/08 00:57:24;;;;;;;2.43;2.20;;;16.60;99.90;;;17.32;nan;100237.56;4942898;28;20677;-66
2022/06/08 00:59:58;;;;;;;3.80;1.93;;;16.70;99.90;;;17.19;nan;100237.19;4971096;28;20619;-66
2022/06/08 01:02:25;;;;;;;1.80;1.63;;;16.60;99.90;;;17.13;nan;100232.56;4959807;28;21003;-67
2022/06/08 01:05:21;;;;;;;2.57;2.30;;;16.50;99.90;;;17.06;nan;100229.75;4970856;28;20658;-66
2022/06/08 01:07:51;;;;;;;3.13;2.30;;;16.50;99.90;;;17.02;nan;100223.16;4933284;29;20649;-67
2022/06/08 01:10:24;;;;;;;2.40;2.20;;;16.40;99.90;;;16.98;nan;100223.66;4939621;29;20651;-67
2022/06/08 01:12:52;;;;;;;2.43;2.23;;;16.40;99.90;;;16.93;nan;100218.84;4951078;29;21204;-67
2022/06/08 01:15:26;;;;;;;2.00;1.80;;;16.30;99.90;;;16.92;nan;100219.84;4952157;28;21337;-67
2022/06/08 01:17:53;;;;;;;2.60;1.93;;;16.30;99.90;;;16.96;nan;100220.34;4951125;28;20648;-68
2022/06/08 01:20:20;;;;;;;2.47;2.27;;;16.30;99.90;;;17.01;nan;100223.34;4942907;28;20723;-66
2022/06/08 01:22:47;;;;;;;2.20;2.03;;;16.40;99.90;;;17.01;nan;100229.41;4952556;28;20623;-68
2022/06/08 01:25:15;;;;;;;2.77;1.70;;;16.40;99.90;;;17.02;nan;100228.44;4943626;29;20688;-66
2022/06/08 01:27:57;;;;;;;1.60;1.50;;;16.40;99.90;;;16.88;nan;100229.06;4966342;28;20666;-67
2022/06/08 01:30:47;;;;;;;1.23;1.13;;;16.30;99.90;;;16.79;nan;100224.75;4933292;29;20636;-66
2022/06/08 01:33:42;;;;;;;1.77;1.67;;;16.30;99.90;;;16.80;nan;100222.94;4932896;29;20637;-66
2022/06/08 01:36:41;;;;;;;3.60;2.33;;;16.20;99.90;;;16.72;nan;100228.16;4945682;28;20628;-66
2022/06/08 01:39:27;;;;;;;2.07;1.97;;;16.10;99.90;;;16.66;nan;100228.81;4951024;28;20646;-67
2022/06/08 01:42:12;;;;;;;2.30;2.10;;;16.00;99.90;;;16.61;nan;100226.63;4941023;28;21011;-67
2022/06/08 01:48:01;;;;;;;1.87;1.77;;;16.00;99.90;;;16.53;nan;100216.06;4969769;28;20659;-67
2022/06/08 01:50:44;;;;;;;2.00;1.90;;;15.90;99.90;;;16.41;nan;100219.13;4933965;29;20631;-66
2022/06/08 01:53:56;;;;;;;2.90;1.93;;;15.90;99.90;;;16.34;nan;100208.38;4933054;29;20635;-67
2022/06/08 01:56:52;;;;;;;2.13;2.00;;;15.80;99.90;;;16.34;nan;100211.03;4940799;28;20648;-65
2022/06/08 01:59:56;;;;;;;4.60;2.20;;;15.80;99.90;;;16.36;nan;100210.84;4953423;28;21213;-67
2022/06/08 02:03:01;;;;;;;2.40;2.13;;;15.80;99.90;;;16.35;nan;100210.06;4951290;28;20640;-66
2022/06/08 02:05:47;;;;;;;2.20;2.00;;;15.80;99.90;;;16.37;nan;100213.34;4948067;28;21326;-66
2022/06/08 02:08:46;;;;;;;2.07;1.97;;;15.80;99.90;;;16.43;nan;100204.81;4956976;28;20670;-66
2022/06/08 02:11:45;;;;;;;2.37;2.27;;;15.80;99.90;;;16.43;nan;100207.44;4942769;29;20652;-66
2022/06/08 02:14:30;;;;;;;2.37;1.73;;;15.90;99.90;;;16.53;nan;100213.44;4949245;28;20761;-66
2022/06/08 02:17:38;;;;;;;1.67;1.60;;;15.90;99.90;;;16.51;nan;100207.50;4949631;28;20674;-67
2022/06/08 02:20:26;;;;;;;2.23;2.03;;;16.00;99.90;;;16.46;nan;100206.31;4935874;29;20643;-67
2022/06/08 02:23:17;;;;;;;1.70;1.60;;;15.90;99.90;;;16.28;nan;100193.22;4951642;29;20626;-67
2022/06/08 02:25:50;;;;;;;1.80;1.70;;;15.70;99.90;;;16.19;nan;100183.63;4945992;29;20795;-66
2022/06/08 02:28:32;;;;;;;2.13;2.03;;;15.60;99.90;;;16.14;nan;100188.56;4949794;28;20668;-67
2022/06/08 02:31:11;;;;;;;1.93;1.70;;;15.60;99.90;;;16.09;nan;100189.03;4949508;29;20640;-68
2022/06/08 02:36:42;;;;;;;2.60;2.00;;;15.50;99.90;;;15.94;nan;100173.94;4950199;29;20640;-67
2022/06/08 02:39:42;;;;;;;3.87;2.40;;;15.40;99.90;;;16.06;nan;100168.25;4941921;28;21046;-67
2022/06/08 02:42:16;;;;;;;1.90;1.80;;;15.50;99.90;;;16.02;nan;100166.09;4952522;28;20651;-66
2022/06/08 02:44:48;;;;;;;3.37;2.37;;;15.50;99.90;;;15.86;nan;100168.66;4961015;28;20636;-67
2022/06/08 02:47:34;;;;;;;2.67;1.40;;;15.40;99.90;;;15.99;nan;100174.31;4951256;28;20703;-67
2022/06/08 02:50:15;;;;;;;2.20;2.00;;;15.40;99.90;;;16.07;nan;100169.94;4950395;28;20616;-67
2022/06/08 02:52:45;;;;;;;2.00;1.90;;;15.50;99.90;;;15.97;nan;100173.66;4954915;28;20700;-67
2022/06/08 02:55:33;;;;;;;2.30;2.10;;;15.40;99.90;;;15.92;nan;100174.13;4953716;28;20657;-67
2022/06/08 02:58:08;;;;;;;2.10;1.90;;;15.40;99.90;;;15.98;nan;100167.41;4954710;28;20667;-67
2022/06/08 03:00:44;;;;;;;2.30;2.10;;;15.40;99.90;;;16.03;nan;100173.03;4952853;29;21019;-65
2022/06/08 03:03:15;;;;;;;1.77;1.67;;;15.50;99.90;;;15.96;nan;100153.56;4953476;29;20616;-66
2022/06/08 03:06:00;;;;;;;2.17;2.00;;;15.40;99.90;;;15.97;nan;100152.59;4950493;28;20675;-66
2022/06/08 03:08:34;;;;;;;2.03;1.93;;;15.40;99.90;;;15.98;nan;100147.19;4953834;28;20655;-67
2022/06/08 03:11:04;;;;;;;1.83;1.73;;;15.40;99.90;;;15.99;nan;100158.53;4952903;29;20644;-66
2022/06/08 03:13:41;;;;;;;2.23;2.00;;;15.50;99.90;;;16.03;nan;100152.81;4953504;29;20986;-67
2022/06/08 03:16:24;;;;;;;2.93;1.23;;;15.50;99.90;;;15.97;nan;100145.50;4935202;29;20716;-67
2022/06/08 03:18:51;;;;;;;2.10;2.00;;;15.50;99.90;;;15.97;nan;100148.16;4935958;29;20707;-66
2022/06/08 03:21:18;;;;;;;3.00;2.70;;;15.40;99.90;;;16.06;nan;100144.59;4957698;28;20650;-67
2022/06/08 03:23:46;;;;;;;2.83;2.17;;;15.50;99.90;;;16.13;nan;100142.16;4954747;28;20774;-66
2022/06/08 03:26:16;;;;;;;2.83;1.87;;;15.60;99.90;;;16.21;nan;100140.38;4954601;28;20685;-67
2022/06/08 03:28:43;;;;;;;3.10;2.23;;;15.70;99.90;;;16.28;nan;100143.22;4953531;29;20652;-67
2022/06/08 03:31:10;;;;;;;1.50;1.40;;;15.70;99.90;;;16.26;nan;100146.00;4947421;28;20647;-67
2022/06/08 03:33:37;;;;;;;2.30;2.10;;;15.70;99.90;;;16.21;nan;100144.81;4963783;28;20681;-66
2022/06/08 03:36:05;;;;;;;2.10;2.00;;;15.70;99.90;;;16.26;nan;100137.28;4944785;29;20695;-66
2022/06/08 03:38:33;;;;;;;1.80;1.70;;;15.70;99.90;;;16.29;nan;100144.88;4961654;28;20660;-66
2022/06/08 03:41:00;;;;;;;1.50;1.40;;;15.80;99.90;;;16.37;nan;100144.91;4953917;28;20632;-67
2022/06/08 03:43:27;;;;;;;1.80;1.70;;;15.90;99.90;;;16.31;nan;100150.81;4952305;28;21022;-68
2022/06/08 03:45:59;;;;;;;1.30;1.23;;;15.80;99.90;;;16.35;nan;100152.13;4954899;28;21089;-67
2022/06/08 03:48:27;;;;;;;2.00;1.90;;;15.90;99.90;;;16.40;nan;100144.56;4951702;28;20788;-66
2022/06/08 03:50:58;;;;;;;2.07;1.97;;;15.90;99.90;;;16.49;nan;100140.97;4953998;29;20628;-67
2022/06/08 03:53:36;;;;;;;2.63;2.10;;;16.00;99.90;;;16.69;nan;100147.66;4960707;28;21244;-67
2022/06/08 03:56:06;;;;;;;2.83;2.50;;;16.20;99.90;;;16.80;nan;100152.63;4954011;28;20643;-67
2022/06/08 03:58:34;;;;;;;2.47;2.27;;;16.30;99.90;;;16.99;nan;100154.94;4959727;28;20663;-67
2022/06/08 04:01:01;;;;;;;2.00;1.90;;;16.50;99.90;;;17.22;nan;100149.06;4952297;29;20624;-67
2022/06/08 04:03:28;;;;;;;2.43;2.27;;;16.70;99.90;;;17.36;nan;100148.38;4952225;28;20651;-67
2022/06/08 04:05:58;;;;;;;2.23;2.10;;;16.90;99.90;;;17.37;nan;100155.31;4953355;29;20660;-66
2022/06/08 04:08:25;;;;;;;2.80;2.40;;;16.90;99.90;;;17.35;nan;100149.38;4951102;28;21241;-66
2022/06/08 04:10:52;;;;;;;1.80;1.70;;;16.80;99.90;;;17.49;nan;100157.47;4953545;28;20628;-67
2022/06/08 04:13:20;;;;;;;3.90;2.10;;;17.00;99.90;;;17.43;nan;100152.03;4953207;29;20636;-67
2022/06/08 04:15:47;;;;;;;2.27;2.17;;;17.00;99.90;;;17.45;nan;100158.78;4954431;28;20608;-67
2022/06/08 04:18:21;;;;;;;1.63;1.57;;;16.90;99.90;;;17.49;nan;100161.91;4946432;29;20674;-67
2022/06/08 04:20:53;;;;;;;2.57;2.37;;;16.90;99.90;;;17.25;nan;100160.09;4948010;28;20631;-67
2022/06/08 04:23:25;;;;;;;2.07;1.97;;;16.80;99.90;;;17.27;nan;100157.31;4964463;28;20636;-67
2022/06/08 04:25:54;;;;;;;3.23;2.10;;;16.70;99.90;;;17.27;nan;100160.75;4951701;29;20668;-66
2022/06/08 04:28:22;;;;;;;2.50;2.30;;;16.70;99.90;;;17.29;nan;100160.59;4953817;28;21229;-64
2022/06/08 04:30:50;;;;;;;2.07;1.97;;;16.70;99.90;;;17.21;nan;100168.47;4952295;28;20628;-65
2022/06/08 04:33:18;;;;;;;2.33;2.23;;;16.70;99.90;;;17.19;nan;100162.56;4951714;28;20640;-67
2022/06/08 04:35:46;;;;;;;2.43;2.23;;;16.70;99.90;;;17.09;nan;100168.00;4936013;29;20639;-67
2022/06/08 04:38:14;;;;;;;2.83;2.63;;;16.60;99.90;;;17.01;nan;100165.34;4952584;28;20672;-67
2022/06/08 04:40:43;;;;;;;2.30;2.10;;;16.50;99.90;;;16.91;nan;100162.03;4944675;29;20647;-67
2022/06/08 04:43:10;;;;;;;2.23;2.10;;;16.40;99.90;;;16.88;nan;100159.72;4952519;28;20640;-67
2022/06/08 04:45:38;;;;;;;2.17;1.97;;;16.30;99.90;;;16.85;nan;100160.03;4953950;29;20661;-67
2022/06/08 04:48:06;;;;;;;2.53;2.40;;;16.40;99.90;;;16.81;nan;100159.53;4948913;29;21187;-67
2022/06/08 04:50:34;;;;;;;3.30;1.77;;;16.30;99.90;;;16.86;nan;100156.44;4951008;28;20624;-66
2022/06/08 04:53:01;;;;;;;3.67;2.20;;;16.30;99.90;;;16.96;nan;100141.28;4951043;29;21078;-67
2022/06/08 04:55:29;;;;;;;6.13;2.30;;;16.50;99.90;;;17.12;nan;100146.59;4948422;28;20647;-66
2022/06/08 04:57:56;;;;;;;3.17;2.30;;;16.60;99.90;;;17.40;nan;100149.72;4954154;28;20663;-67
2022/06/08 05:00:24;;;;;;;1.93;1.83;;;16.90;99.90;;;17.68;nan;100153.66;4951796;28;20655;-67
2022/06/08 05:02:53;;;;;;;5.03;2.17;;;17.20;99.90;;;18.08;nan;100142.22;4967624;28;20636;-67
2022/06/08 05:05:27;;;;;;;7.10;2.20;;;17.60;99.90;;;18.47;nan;100145.72;4951397;29;20978;-66
2022/06/08 05:07:55;;;;;;;2.10;2.00;;;18.10;99.90;;;18.88;nan;100143.66;4951523;28;20667;-68
2022/06/08 05:10:26;;;;;;;2.10;2.00;;;18.50;99.90;;;18.99;nan;100152.03;4951040;28;20648;-66
2022/06/08 05:12:53;;;;;;;1.60;1.57;;;18.60;99.90;;;18.90;nan;100146.97;4970874;28;20627;-67
2022/06/08 05:15:30;;;;;;;3.70;2.30;;;18.50;99.90;;;18.85;nan;100151.94;4968201;28;20654;-67
2022/06/08 05:17:58;;;;;;;4.80;2.23;;;18.40;99.90;;;18.41;nan;100154.28;4951958;29;21221;-67
2022/06/08 05:20:27;;;;;;;4.20;1.93;;;18.00;99.90;;;18.38;nan;100149.34;4947817;28;20645;-68
2022/06/08 05:22:54;;;;;;;2.50;2.30;;;17.90;99.90;;;18.33;nan;100143.78;4951704;28;20621;-67
2022/06/08 05:25:31;;;;;;;3.27;2.40;;;17.80;99.90;;;18.11;nan;100144.50;4950688;29;20650;-67
2022/06/08 05:27:59;;;;;;;2.43;2.20;;;17.50;99.90;;;18.05;nan;100151.28;4950721;29;20663;-67
2022/06/08 05:30:26;;;;;;;2.63;2.43;;;17.50;99.90;;;18.07;nan;100153.75;4949791;29;20632;-67
2022/06/08 05:32:54;;;;;;;2.30;2.20;;;17.50;99.90;;;18.22;nan;100141.50;4951893;28;21378;-66
2022/06/08 05:35:23;;;;;;;1.97;1.87;;;17.70;99.90;;;18.13;nan;100145.16;4949979;29;20743;-66
2022/06/08 05:37:51;;;;;;;3.07;2.23;;;17.60;99.90;;;18.18;nan;100140.19;4951734;29;20644;-66
2022/06/08 05:40:20;;;;;;;2.97;2.40;;;17.70;99.90;;;18.24;nan;100150.91;4951308;28;22105;-67
2022/06/08 05:42:48;;;;;;;2.10;1.93;;;17.70;99.90;;;18.29;nan;100143.28;4950433;29;20612;-65
2022/06/08 05:45:21;;;;;;;2.37;2.30;;;17.80;99.90;;;18.05;nan;100139.91;4950336;29;21280;-65
2022/06/08 05:47:48;;;;;;;2.23;1.90;;;17.60;99.90;;;17.98;nan;100128.38;4950607;29;20640;-66
2022/06/08 05:50:17;;;;;;;2.10;2.00;;;17.50;99.90;;;18.07;nan;100141.38;4951511;29;20640;-67
2022/06/08 05:52:46;;;;;;;2.50;2.00;;;17.50;99.90;;;17.92;nan;100132.53;4952322;28;20624;-67
2022/06/08 05:55:15;;;;;;;9.93;2.10;;;17.40;99.90;;;17.98;nan;100131.00;4948724;28;21209;-66
2022/06/08 05:57:42;;;;;;;1.93;1.83;;;17.40;99.90;;;17.87;nan;100128.75;4956742;28;20694;-66
2022/06/08 06:00:17;;;;;;;1.20;1.20;;;17.40;99.90;;;17.80;nan;100120.69;4951391;28;20627;-66
2022/06/08 06:02:45;;;;;;;3.03;2.10;;;17.20;99.90;;;17.72;nan;100126.78;4952232;28;20640;-63
2022/06/08 06:05:16;;;;;;;1.77;1.67;;;17.30;99.90;;;17.78;nan;100126.09;4952501;28;20616;-63
2022/06/08 06:07:44;;;;;;;1.80;1.70;;;17.30;99.90;;;17.84;nan;100127.28;4948576;28;20699;-64
2022/06/08 06:10:12;;;;;;;2.00;1.80;;;17.30;99.90;;;17.93;nan;100128.88;4950319;28;20628;-64
2022/06/08 06:12:40;;;;;;;3.00;1.80;;;17.40;99.90;;;17.90;nan;100121.31;4943202;28;20653;-64
2022/06/08 06:15:09;;;;;;;2.10;1.90;;;17.40;99.90;;;17.92;nan;100124.59;4950890;28;20617;-64
2022/06/08 06:17:36;;;;;;;1.80;1.70;;;17.50;99.90;;;17.99;nan;100124.75;4949400;28;20667;-65
2022/06/08 06:20:06;;;;;;;1.90;1.70;;;17.50;99.90;;;18.12;nan;100131.13;4946403;28;20704;-66
2022/06/08 06:22:35;;;;;;;2.33;1.80;;;17.60;99.90;;;18.27;nan;100132.06;4947853;28;20653;-64
2022/06/08 06:25:04;;;;;;;1.67;1.67;;;17.80;99.90;;;18.38;nan;100126.41;4949967;28;20636;-64
2022/06/08 06:27:31;;;;;;;4.43;2.77;;;17.90;99.90;;;18.63;nan;100131.59;4949841;29;20684;-64
2022/06/08 06:29:58;;;;;;;1.97;1.70;;;18.10;99.90;;;19.63;nan;100139.31;4948360;29;20700;-65
2022/06/08 06:32:33;;;;;;;1.47;1.40;;;19.20;99.90;;;21.27;nan;100135.06;4950763;29;20648;-65
2022/06/08 06:35:02;;;;;;;2.07;1.97;;;20.90;99.90;;;22.81;nan;100130.25;4950990;28;20635;-66
2022/06/08 06:37:29;;;;;;;1.13;1.03;;;22.60;99.90;;;24.40;nan;100128.97;4950467;29;20664;-65
2022/06/08 06:39:57;;;;;;;2.17;2.00;;;24.20;99.90;;;25.96;nan;100141.44;4938182;28;20636;-65
2022/06/08 06:42:29;;;;;;;2.23;1.77;;;25.80;97.90;;;27.33;nan;100142.34;4956204;28;20633;-65
2022/06/08 06:44:56;;;;;;;1.90;1.00;;;27.10;94.00;;;28.23;nan;100132.94;4952379;28;21190;-65
2022/06/08 06:47:23;;;;;;;4.13;2.00;;;28.10;90.20;;;28.96;nan;100124.97;4951309;28;24457;-65
2022/06/08 06:49:50;;;;;;;3.47;1.73;;;28.90;84.50;;;29.12;nan;100126.03;4947628;28;20641;-65
2022/06/08 06:52:18;;;;;;;1.73;1.63;;;28.90;81.40;;;29.93;nan;100120.09;4944406;28;20643;-64
2022/06/08 06:54:46;;;;;;;2.07;1.63;;;29.50;79.10;;;30.14;nan;100119.28;4964230;28;20616;-66
2022/06/08 06:57:14;;;;;;;2.77;1.90;;;29.90;75.30;;;30.48;nan;100104.66;4946336;28;20671;-65
2022/06/08 06:59:41;;;;;;;1.97;1.80;;;30.10;73.80;;;31.37;nan;100107.66;4944914;29;20627;-66
2022/06/08 07:02:18;;;;;;;2.17;1.80;;;30.90;71.50;;;31.49;nan;100102.13;4948958;29;20639;-66
2022/06/08 07:04:45;;;;;;;1.93;1.70;;;31.30;68.90;;;31.95;nan;100099.47;4932328;29;20640;-65
2022/06/08 07:07:13;;;;;;;2.23;1.60;;;31.40;68.10;;;32.79;nan;100099.22;4944874;29;20672;-65
2022/06/08 07:09:41;;;;;;;1.37;1.27;;;32.30;65.10;;;32.65;nan;100096.22;4949964;28;20649;-64
2022/06/08 07:12:12;;;;;;;2.20;1.53;;;32.50;63.10;;;33.35;nan;100090.03;4951286;29;20624;-65
2022/06/08 07:14:40;;;;;;;2.30;1.40;;;32.80;62.00;;;34.44;nan;100078.34;4950387;29;20639;-65
2022/06/08 07:17:08;;;;;;;2.10;1.47;;;33.90;60.00;;;35.19;nan;100081.66;4950013;29;20740;-65
2022/06/08 07:19:36;;;;;;;2.30;2.00;;;34.60;57.70;;;35.31;nan;100084.81;4950112;28;20651;-65
2022/06/08 07:22:04;;;;;;;2.80;1.70;;;34.70;55.90;;;35.41;nan;100074.69;4949646;29;21030;-65
2022/06/08 07:24:33;;;;;;;1.43;1.33;;;35.00;54.00;;;35.51;nan;100080.03;4958928;28;20651;-65
2022/06/08 07:27:03;;;;;;;1.40;1.30;;;34.90;53.80;;;36.39;nan;100066.75;4962876;28;21044;-66
2022/06/08 07:29:31;;;;;;;3.43;1.30;;;35.80;52.60;;;34.73;nan;100067.66;4959307;28;20636;-68
2022/06/08 07:31:58;;;;;;;1.63;1.50;;;34.70;52.40;;;33.76;nan;100060.22;4960469;28;20628;-65
2022/06/08 07:34:26;;;;;;;1.43;1.40;;;33.20;53.80;;;32.46;nan;100064.53;4950072;28;20646;-64
2022/06/08 07:36:54;;;;;;;1.60;1.53;;;31.90;55.70;;;30.45;nan;100059.41;4950571;28;20671;-67
2022/06/08 07:39:24;;;;;;;;;;;30.10;58.00;;;29.59;nan;100053.97;4953259;28;20488;-66
2022/06/08 07:41:51;;;;;;;;;;;29.00;59.80;;;28.79;nan;100059.66;4939248;29;19933;-66
2022/06/08 07:44:19;;;;;;;1.40;1.40;;;28.30;61.80;;;27.78;nan;100050.66;4956296;28;20207;-66
2022/06/08 07:46:47;;;;;;;1.50;1.40;;;27.20;63.40;;;26.61;nan;100047.03;4960822;28;24512;-66
2022/06/08 07:49:36;;;;;;;1.90;1.70;;;26.30;65.50;;;25.98;nan;100049.28;4952580;28;24436;-67
2022/06/08 07:52:07;;;;;;;2.67;1.90;;;25.60;67.80;;;25.43;nan;100054.84;4952952;29;24500;-64
2022/06/08 07:54:35;;;;;;;2.20;1.60;;;25.10;69.30;;;25.39;nan;100052.56;4952132;29;20504;-66
2022/06/08 07:57:04;;;;;;;1.53;1.40;;;24.80;70.50;;;25.70;nan;100043.66;4953623;28;20714;-67
2022/06/08 07:59:36;;;;;;;1.27;1.13;;;25.20;70.30;;;26.09;nan;100053.91;4952842;28;21007;-65
2022/06/08 08:02:05;;;;;;;1.20;1.20;;;25.50;69.70;;;26.32;nan;100047.03;4946867;28;20654;-66
2022/06/08 08:04:32;;;;;;;1.47;1.40;;;25.70;68.90;;;26.50;nan;100049.66;4954128;28;20623;-67
2022/06/08 08:07:00;;;;;;;2.03;1.40;;;26.00;68.40;;;27.11;nan;100039.47;4964637;28;21327;-66
2022/06/08 08:09:27;;;;;;;1.30;1.30;;;26.60;67.30;;;27.64;nan;100044.75;4946804;28;20637;-65
2022/06/08 08:11:54;;;;;;;6.23;1.53;;;27.10;66.40;;;27.06;nan;100038.53;4960810;28;21228;-67
2022/06/08 08:14:24;;;;;;;3.67;1.50;;;26.70;66.40;;;27.92;nan;100027.94;4954116;28;20616;-67
2022/06/08 08:16:51;;;;;;;1.20;1.13;;;27.50;64.90;;;29.63;nan;100028.22;4953313;28;21269;-66
2022/06/08 08:19:22;;;;;;;1.27;1.17;;;29.20;62.10;;;30.54;nan;100033.66;4953508;28;21178;-66
2022/06/08 08:21:50;;;;;;;8.63;1.53;;;30.20;59.40;;;31.60;nan;100037.22;4951398;29;20662;-65
2022/06/08 08:24:18;;;;;;;2.40;1.17;;;31.20;58.10;;;32.26;nan;100021.31;4945466;28;20643;-66
2022/06/08 08:26:49;;;;;;;1.50;1.20;;;32.00;57.00;;;34.47;nan;100022.81;4951935;28;20874;-66
2022/06/08 08:29:17;;;;;;;1.93;1.20;;;34.10;54.20;;;36.00;nan;100021.94;4951651;28;20642;-67
2022/06/08 08:31:45;;;;;;;1.77;1.67;;;35.40;52.70;;;36.51;nan;100012.78;4952666;29;20632;-66
2022/06/08 08:34:12;;;;;;;0.87;0.87;;;36.40;50.00;;;36.49;nan;100011.47;4954065;29;20636;-66
2022/06/08 08:36:39;;;;;;;2.13;1.20;;;36.60;48.80;;;37.66;nan;100009.13;4952124;28;21236;-67
2022/06/08 08:39:07;;;;;;;1.60;1.23;;;37.00;49.00;;;36.53;nan;100007.88;4954453;28;20634;-64
2022/06/08 08:44:56;;;;;;;2.40;1.67;;;37.10;47.70;;;36.49;nan;100003.31;4952217;29;20637;-65
2022/06/08 08:47:29;;;;;;;1.63;1.13;;;36.50;47.50;;;37.71;nan;99994.63;4953552;28;20660;-64
2022/06/08 08:50:26;;;;;;;1.00;1.00;;;37.60;47.00;;;37.79;nan;99997.47;4951420;28;20639;-65
2022/06/08 08:53:51;;;;;;;2.27;1.40;;;37.50;46.50;;;37.38;nan;99980.31;4947814;29;20644;-66
2022/06/08 08:56:31;;;;;;;1.87;1.77;;;36.60;46.70;;;37.34;nan;99979.31;4953441;28;20637;-66
2022/06/08 08:59:00;;;;;;;1.60;1.17;;;36.60;47.10;;;38.73;nan;99975.69;4950966;29;20647;-65
2022/06/08 09:01:35;;;;;;;1.30;1.20;;;38.20;45.70;;;39.75;nan;99985.47;4945579;28;20637;-65
2022/06/08 09:04:32;;;;;;;1.93;1.20;;;39.10;45.00;;;40.53;nan;99971.56;4935980;29;20638;-65
2022/06/08 09:07:19;;;;;;;1.00;1.00;;;39.80;43.80;;;40.47;nan;99967.41;4956326;28;20761;-65
2022/06/08 09:09:46;;;;;;;1.07;1.03;;;40.30;43.30;;;40.12;nan;99954.88;4959121;28;20655;-65
2022/06/08 09:12:18;;;;;;;1.10;1.10;;;40.00;43.30;;;39.70;nan;99966.53;4951391;29;20635;-66
2022/06/08 09:15:00;;;;;;;1.30;1.20;;;39.80;43.10;;;39.29;nan;99962.19;4952557;28;20632;-65
2022/06/08 09:17:52;;;;;;;3.70;1.30;;;38.90;43.30;;;37.24;nan;99952.28;4951463;28;20667;-65
2022/06/08 09:20:31;;;;;;;2.07;1.37;;;36.90;44.70;;;34.72;nan;99941.38;4951927;28;20637;-68
2022/06/08 09:23:11;;;;;;;2.93;1.27;;;34.60;46.90;;;34.36;nan;99932.69;4953185;28;20619;-67
2022/06/08 09:25:38;;;;;;;1.10;1.00;;;34.00;48.00;;;34.78;nan;99926.66;4949850;28;21221;-65
2022/06/08 09:28:28;;;;;;;1.80;1.50;;;34.80;46.80;;;35.87;nan;99936.56;4959719;28;20706;-67
2022/06/08 09:30:55;;;;;;;1.30;1.20;;;35.70;46.40;;;36.68;nan;99933.44;4951562;28;20624;-67
2022/06/08 09:33:37;;;;;;;2.97;1.17;;;36.10;45.70;;;38.05;nan;99933.16;4951306;29;20628;-66
2022/06/08 09:36:25;;;;;;;1.53;1.10;;;37.60;44.60;;;40.19;nan;99919.63;4949986;29;21196;-66
2022/06/08 09:38:52;;;;;;;1.30;1.10;;;39.30;43.30;;;43.23;nan;99928.41;4951140;29;20648;-66
2022/06/08 09:41:37;;;;;;;1.90;0.83;;;42.80;41.30;;;41.84;nan;99930.47;4949716;29;20643;-67
2022/06/08 09:44:24;;;;;;;1.20;1.07;;;41.80;40.40;;;39.75;nan;99919.94;4931713;29;20672;-65
2022/06/08 09:54:02;;;;;;;1.37;0.97;;;33.20;47.10;;;31.18;nan;99905.13;4936085;29;20640;-66
2022/06/08 09:57:08;;;;;;;2.20;1.40;;;31.10;49.30;;;30.62;nan;99898.56;4952402;28;20648;-66
2022/06/08 10:00:03;;;;;;;1.20;1.20;;;29.90;51.40;;;31.10;nan;99894.84;4953069;28;20637;-66
2022/06/08 10:03:15;;;;;;;5.10;1.37;;;30.90;51.40;;;33.49;nan;99895.56;4960008;28;21189;-66
2022/06/08 10:06:08;;;;;;;1.67;1.37;;;32.60;50.00;;;33.74;nan;99894.66;4945577;28;21410;-66
2022/06/08 10:09:07;;;;;;;2.40;1.10;;;33.10;48.80;;;33.63;nan;99893.91;4949794;28;21272;-67
2022/06/08 10:12:14;;;;;;;2.27;1.20;;;33.30;47.90;;;32.86;nan;99891.72;4950095;28;20948;-67
2022/06/08 10:14:51;;;;;;;3.40;1.53;;;32.30;49.20;;;31.51;nan;99873.50;4948640;28;20636;-66
2022/06/08 10:17:25;;;;;;;;;;;30.90;51.00;;;30.20;nan;99878.03;4950499;28;20494;-67
2022/06/08 10:20:04;;;;;;;0.80;0.80;;;29.80;51.90;;;28.82;nan;99871.25;4950004;29;20269;-66
2022/06/08 10:22:36;;;;;;;;;;;28.40;53.80;;;28.44;nan;99863.13;4951736;28;20462;-65
2022/06/08 10:25:18;;;;;;;2.00;1.70;;;27.70;55.10;;;27.86;nan;99860.78;4964359;28;20756;-66
2022/06/08 10:28:41;;;;;;;2.10;1.60;;;27.20;55.90;;;27.76;nan;99851.75;4973315;23;24477;-67
2022/06/08 10:31:22;;;;;;;2.50;1.50;;;27.40;56.70;;;28.30;nan;99859.16;4939666;28;24650;-68
2022/06/08 10:34:09;;;;;;;3.38;1.50;;;27.70;56.10;;;28.42;nan;99860.69;4953386;28;24817;-68
2022/06/08 10:36:38;;;;;;;2.65;1.50;;;27.80;55.40;;;28.88;nan;99851.47;4977953;28;24836;-68
2022/06/08 10:39:08;;;;;;;1.85;1.60;;;28.20;55.30;;;28.40;nan;99845.91;4951001;28;24844;-67
2022/06/08 10:44:36;;;;;;;2.33;1.20;;;27.60;55.50;;;28.56;nan;99837.00;4948162;29;24809;-67
2022/06/08 10:47:16;;;;;;;2.80;1.40;;;27.90;55.60;;;29.15;nan;99847.00;4943042;28;24458;-66
2022/06/08 10:49:52;;;;;;;4.20;2.10;;;28.50;54.60;;;29.41;nan;99834.69;4949020;28;24478;-66
2022/06/08 10:52:19;;;;;;;;;;;28.80;54.70;;;28.40;nan;99825.25;4951385;29;20463;-68
2022/06/08 10:54:57;;;;;;;;;;;28.00;53.90;;;27.24;nan;99816.97;4953655;28;20388;-67
2022/06/08 10:57:49;;;;;;;1.37;1.10;;;26.90;55.10;;;27.09;nan;99821.22;4951965;28;20219;-68
2022/06/08 11:00:19;;;;;;;5.70;1.20;;;26.40;56.70;;;27.05;nan;99818.16;4952215;28;20643;-67
2022/06/08 11:03:02;;;;;;;1.10;1.10;;;26.40;57.40;;;27.02;nan;99813.31;4952405;28;21147;-67
2022/06/08 11:05:44;;;;;;;3.33;1.40;;;26.30;58.00;;;27.17;nan;99810.94;4952843;28;21197;-67
2022/06/08 11:08:24;;;;;;;1.27;0.67;;;26.50;58.00;;;26.75;nan;99815.66;4952678;28;20710;-65
2022/06/08 11:10:58;;;;;;;3.13;1.20;;;26.30;58.00;;;26.91;nan;99803.44;4952637;28;20624;-67
2022/06/08 11:13:28;;;;;;;0.90;0.80;;;26.20;58.10;;;26.57;nan;99797.06;4953984;28;20667;-67
2022/06/08 11:16:27;;;;;;;2.57;1.00;;;26.00;57.90;;;26.68;nan;99804.22;4956355;28;21214;-66
2022/06/08 11:19:05;;;;;;;3.97;1.30;;;26.00;57.50;;;26.66;nan;99800.19;4955118;28;20660;-67